Coral Harbour, Nunavut

1:51 PM EDT on October 25, 2014 (GMT -0400)
Coral Harbour | Change Station
CLOSE
Current Station
Airport
Location: Coral Harbour,
Elevation: 210 ft
Nearby Weather Stations

Elev 210 ft 64.19 °N, 83.36 °W | Updated 51 minutes ago

Overcast
Overcast
21 °F
Feels Like 3 °F
N
30
Wind Variable Wind from East
Gusts 41 mph

Today is forecast to be nearly the same temperature as yesterday.

Today
High -- | Low -- °F
--% Chance of Precip.
Yesterday
High -- | Low -- °F
Precip. -- in
8:54 AM 5:38 PM
Waxing Crescent, 4% visible
Pressure 29.88 in
Visibility 15.0 miles
Clouds Mostly Cloudy 1200 ft
Mostly Cloudy 9000 ft
Overcast 21000 ft
Windchill 3 °F
Dew Point 14 °F
Humidity 74%
Rainfall 0.00 in
Snow Depth Not available.
UV 0 out of 12
Pollen Not available.
Air Quality Not available.
Flu Activity Not available.
METAR CYZS 251700Z 08026G36KT 15SM BKN012 BKN090 OVC210 M06/M10 A2986 RMK SC6AC1CS1 SLP118

More Conditions Fewer Conditions

Pressure 29.88 in
Visibility 15.0 miles
Clouds Mostly Cloudy 1200 ft
Mostly Cloudy 9000 ft
Overcast 21000 ft
Windchill 3 °F
Dew Point 14 °F
Humidity 74%
Rainfall 0.00 in
Snow Depth Not available.
UV 0 out of 12
Pollen Not available.
Air Quality Not available.
Flu Activity Not available.
METAR CYZS 251700Z 08026G36KT 15SM BKN012 BKN090 OVC210 M06/M10 A2986 RMK SC6AC1CS1 SLP118

More Conditions Fewer Conditions

10-Day Weather Forecast

Almanac

Astronomy

Oct. 25, 2014 Rise Set
Actual Time 8:54 AM EDT 5:38 PM EDT
Civil Twilight 8:03 AM EDT 6:29 PM EDT
Nautical Twilight 7:07 AM EDT 7:25 PM EDT
Astronomical Twilight 6:12 AM EDT 8:21 PM EDT
Moon 11:03 AM EDT 6:26 PM EDT
Length of Visible Light 10h 26m
Length of Day
8h 44m
Tomorrow will be 6m 31s shorter.
Waxing Crescent, 4% of the Moon is Illuminated
Today
Waxing Crescent
Oct 30
First Quarter
Nov 6
Full
Nov 14
Last Quarter
Nov 22
New

Today's Extremes

Country Highs Country Lows

Community

WunderPhotos

Upload Photos

1,764,919 photos uploaded!

Nearby

Snow Depth

Not available.

Earthquake Activity

City Distance Mag. Time & Date
No recent earthquake activity has been reported nearby.
Minimum magnitude displayed is 2.5.

Coastal Water Temperatures

Place Temperature
No Stations Reporting

Nearby Weather Stations